Flight Track Log - Related Links

Times and Time Zones

All times are in EDT time to prevent confusion due to time zone crossing. See the JZA7927 flight status page for this flight to view local times or setup timezone preferences in your user account.

Time Position Orientation Groundspeed Altitude Reporting Facility
EDT Latitude Longitude Course Direction KTS MPH feet Rate Location/Type
Mon 06:06:09 AM 39.2167 -76.7000 North 138 159 1,800  Level Potomac TRACON
Mon 06:07:03 AM 39.2500 -76.7000 360° North 162 186 2,700 1,103 Climbing Potomac TRACON
Mon 06:08:00 AM 39.4296 -76.6518 21° North  Level FlightAware Approximate
Mon 06:09:00 AM 39.4915 -76.6167 North  Level FlightAware Approximate
Mon 06:09:03 AM 39.3333 -76.6833 North 163 188 5,000  Level Potomac TRACON
Mon 06:10:00 AM 39.5599 -76.6167 North  Level FlightAware Approximate
Mon 06:11:00 AM 39.6279 -76.6092 North  Level FlightAware Approximate
Mon 06:11:05 AM 39.4386 -76.6636 North 178 205 7,400  Level New York Center
Mon 06:12:05 AM 39.4850 -76.6567 North 166 191 8,700 1,200 Climbing New York Center
Mon 06:13:05 AM 39.5292 -76.6469 10° North 161 185 9,800 1,200 Climbing New York Center
Mon 06:14:05 AM 39.5733 -76.6400 North 161 185 11,100 1,150 Climbing New York Center
Mon 06:15:05 AM 39.6156 -76.6328 North 161 185 12,100 950 Climbing New York Center
Mon 06:16:05 AM 39.6617 -76.6258 North 161 185 13,000 446 Climbing New York Center
Mon 06:17:06 AM 39.7164 -76.6142 North 176 203 13,000  Level New York Center
Mon 06:18:07 AM 39.7764 -76.6272 351° North 203 234 13,000  Level New York Center
Mon 06:19:06 AM 39.8308 -76.6642 332° Northwest 214 246 13,000  Level New York Center
Mon 06:20:05 AM 39.8894 -76.6989 336° Northwest 219 252 13,000  Level New York Center
Mon 06:21:07 AM 39.9439 -76.7333 334° Northwest 219 252 13,000  Level New York Center
Mon 06:22:05 AM 40.0028 -76.7681 336° Northwest 224 258 13,000  Level New York Center
Mon 06:23:07 AM 40.0572 -76.8025 334° Northwest 224 258 13,000  Level New York Center
Mon 06:24:05 AM 40.1158 -76.8375 335° Northwest 224 258 13,000  Level New York Center
Mon 06:25:06 AM 40.1725 -76.8725 335° Northwest 224 258 13,000  Level New York Center
Mon 06:26:07 AM 40.2311 -76.9075 335° Northwest 229 264 13,000  Level New York Center
Mon 06:27:06 AM 40.2878 -76.9425 335° Northwest 229 264 13,000  Level New York Center
Mon 06:28:05 AM 40.3400 -76.9769 333° Northwest 230 265 13,000  Level New York Center
Mon 06:29:05 AM 40.4028 -77.0153 335° Northwest 230 265 13,000  Level New York Center
Mon 06:30:05 AM 40.4553 -77.0475 335° Northwest 230 265 13,000  Level New York Center
Mon 06:31:07 AM 40.5178 -77.0858 335° Northwest 230 265 13,000  Level New York Center
Mon 06:32:07 AM 40.5722 -77.1211 334° Northwest 230 265 13,000  Level New York Center
Mon 06:33:06 AM 40.6347 -77.1594 335° Northwest 230 265 13,000  Level New York Center
Mon 06:34:06 AM 40.6911 -77.1950 334° Northwest 230 265 13,000  Level New York Center
Mon 06:35:06 AM 40.7494 -77.2333 334° Northwest 230 265 13,000  Level New York Center
Mon 06:36:06 AM 40.8058 -77.2689 334° Northwest 230 265 13,000  Level New York Center
Mon 06:37:07 AM 40.8644 -77.3019 337° Northwest 230 265 13,000  Level New York Center
Mon 06:38:05 AM 40.9208 -77.3375 335° Northwest 230 265 13,000  Level New York Center
Mon 06:39:05 AM 40.9731 -77.3728 333° Northwest 230 265 13,000  Level New York Center
Mon 06:41:03 AM 41.0872 -77.4450 335° Northwest 245 282 13,000  Level Cleveland Center
Mon 06:42:03 AM 41.1531 -77.4861 335° Northwest 240 276 13,000  Level Cleveland Center
Mon 06:43:03 AM 41.2103 -77.5247 333° Northwest 240 276 13,000  Level Cleveland Center
Mon 06:44:03 AM 41.2592 -77.5528 337° Northwest 240 276 13,000  Level Cleveland Center
Mon 06:45:03 AM 41.3164 -77.5917 333° Northwest 245 282 13,000  Level Cleveland Center
Mon 06:46:03 AM 41.3803 -77.6414 330° Northwest 245 282 13,000  Level Cleveland Center
Mon 06:47:03 AM 41.4414 -77.6692 341° North 240 276 13,000  Level Cleveland Center
Mon 06:48:03 AM 41.4967 -77.7136 329° Northwest 226 260 13,000  Level Cleveland Center
Mon 06:49:03 AM 41.5561 -77.7528 334° Northwest 226 260 13,000  Level Cleveland Center
Mon 06:50:03 AM 41.6133 -77.7919 333° Northwest 226 260 13,000  Level Cleveland Center
Mon 06:51:03 AM 41.6639 -77.8147 341° North 251 289 13,000  Level Cleveland Center
Mon 06:52:03 AM 41.7211 -77.8483 336° Northwest 246 283 13,000  Level Cleveland Center
Mon 06:53:03 AM 41.7867 -77.8903 334° Northwest 241 277 13,000  Level Cleveland Center
Mon 06:54:03 AM 41.8439 -77.9267 335° Northwest 241 277 13,000  Level Cleveland Center
Mon 06:55:03 AM 41.9053 -77.9689 333° Northwest 241 277 13,000  Level Cleveland Center
Mon 06:56:03 AM 41.9644 -78.0083 334° Northwest 241 277 13,000  Level Cleveland Center
Mon 06:57:03 AM 42.0236 -78.0450 335° Northwest 241 277 13,000  Level Cleveland Center
Mon 06:58:03 AM 42.0808 -78.0819 334° Northwest 241 277 13,000  Level Cleveland Center
Mon 06:59:03 AM 42.1400 -78.1217 334° Northwest 241 277 13,000  Level Cleveland Center
Mon 07:00:03 AM 42.1992 -78.1614 334° Northwest 241 277 13,000  Level Cleveland Center
Mon 07:01:03 AM 42.2583 -78.1986 335° Northwest 241 277 13,000  Level Cleveland Center
Mon 07:02:03 AM 42.3175 -78.2383 334° Northwest 241 277 13,000  Level Cleveland Center
Mon 07:03:03 AM 42.3767 -78.2756 335° Northwest 241 277 13,000  Level Cleveland Center
Mon 07:04:03 AM 42.4358 -78.3156 333° Northwest 241 277 13,000  Level Cleveland Center
Mon 07:05:03 AM 42.4972 -78.3556 334° Northwest 241 277 13,000  Level Cleveland Center
Mon 07:06:03 AM 42.5561 -78.3958 333° Northwest 241 277 13,000  Level Cleveland Center
Mon 07:07:03 AM 42.6175 -78.4361 334° Northwest 241 277 13,000  Level Cleveland Center
Mon 07:08:03 AM 42.6744 -78.4736 334° Northwest 241 277 13,000  Level Cleveland Center
Mon 07:09:03 AM 42.7356 -78.5139 334° Northwest 241 277 13,000  Level Cleveland Center
Mon 07:10:03 AM 42.7925 -78.5544 332° Northwest 246 283 13,000  Level Cleveland Center
Mon 07:11:03 AM 42.8517 -78.5922 335° Northwest 246 283 13,000  Level Cleveland Center
Mon 07:12:03 AM 42.9128 -78.6328 334° Northwest 246 283 13,000  Level Cleveland Center
Mon 07:13:03 AM 42.9597 -78.6967 315° West 241 277 13,000  Level Cleveland Center

Login

Don't have an account? Register now (free) for customized features, flight alerts, and more!